Time;durP1;ratioP1;P1;durP2;ratioP2;P2;SDS_P1;SDS_P2;PMS_P1;PMS_P2;Temp;Humidity;BMP_temperature;BMP_pressure;BME280_temperature;BME280_humidity;BME280_pressure;Samples;Min_cycle;Max_cycle;Signal;HPM_P1;HPM_P2
2022/09/13 00:00:24;;;;;;;;;;;12.60;99.90;;;;;;5081346;28;20412;-73
2022/09/13 00:02:56;;;;;;;;;;;12.60;99.90;;;;;;5063409;28;19928;-73
2022/09/13 00:05:27;;;;;;;;;;;12.50;99.90;;;;;;5064247;28;19950;-73
2022/09/13 00:07:59;;;;;;;;;;;12.50;99.90;;;;;;5068309;28;19928;-73
2022/09/13 00:10:26;;;;;;;;;;;12.50;99.90;;;;;;5065572;28;19989;-73
2022/09/13 00:12:57;;;;;;;;;;;12.50;99.90;;;;;;5063817;28;19990;-73
2022/09/13 00:15:29;;;;;;;;;;;12.50;99.90;;;;;;5068223;28;19924;-72
2022/09/13 00:17:56;;;;;;;;;;;12.50;99.90;;;;;;5064674;28;19928;-72
2022/09/13 00:20:27;;;;;;;;;;;12.40;99.90;;;;;;5074263;28;19932;-73
2022/09/13 00:22:59;;;;;;;;;;;12.40;99.90;;;;;;5078876;28;19924;-72
2022/09/13 00:25:31;;;;;;;;;;;12.30;99.90;;;;;;5077431;28;20484;-73
2022/09/13 00:28:03;;;;;;;;;;;12.30;99.90;;;;;;5064213;28;20363;-73
2022/09/13 00:30:34;;;;;;;;;;;12.30;99.90;;;;;;5076883;28;19924;-72
2022/09/13 00:33:06;;;;;;;;;;;12.30;99.90;;;;;;5081560;28;19981;-73
2022/09/13 00:35:37;;;;;;;;;;;12.30;99.90;;;;;;5064314;28;19952;-73
2022/09/13 00:38:09;;;;;;;;;;;12.30;99.90;;;;;;5061982;28;19925;-72
2022/09/13 00:40:40;;;;;;;;;;;12.30;99.90;;;;;;5084491;28;19931;-73
2022/09/13 00:43:17;;;;;;;;;;;12.20;99.90;;;;;;5056473;28;19954;-73
2022/09/13 00:45:48;;;;;;;;;;;12.20;99.90;;;;;;5059339;28;20547;-71
2022/09/13 00:48:21;;;;;;;;;;;12.20;99.90;;;;;;5070340;28;19924;-73
2022/09/13 00:50:54;;;;;;;;;;;12.20;99.90;;;;;;5050111;28;19928;-72
2022/09/13 00:53:37;;;;;;;;;;;12.10;99.90;;;;;;5079323;28;19974;-72
2022/09/13 00:56:11;;;;;;;;;;;12.10;99.90;;;;;;5087773;28;19924;-72
2022/09/13 00:58:38;;;;;;;;;;;12.10;99.90;;;;;;5076832;28;20390;-72
2022/09/13 01:01:11;;;;;;;;;;;12.10;99.90;;;;;;5045009;28;19928;-73
2022/09/13 01:03:44;;;;;;;;;;;12.10;99.90;;;;;;5070463;28;19928;-73
2022/09/13 01:06:17;;;;;;;;;;;12.10;99.90;;;;;;5051555;28;19932;-72
2022/09/13 01:08:45;;;;;;;;;;;12.00;99.90;;;;;;5076005;28;19924;-73
2022/09/13 01:11:28;;;;;;;;;;;12.00;99.90;;;;;;5064860;28;19976;-73
2022/09/13 01:14:00;;;;;;;;;;;12.00;99.90;;;;;;5081064;28;19928;-73
2022/09/13 01:16:31;;;;;;;;;;;11.90;99.90;;;;;;5074554;28;19925;-72
2022/09/13 01:19:03;;;;;;;;;;;11.90;99.90;;;;;;5078253;28;19923;-72
2022/09/13 01:21:47;;;;;;;;;;;11.80;99.90;;;;;;5066540;28;20345;-73
2022/09/13 01:24:37;;;;;;;;;;;11.80;99.90;;;;;;5075966;28;19928;-73
2022/09/13 01:27:28;;;;;;;;;;;11.70;99.90;;;;;;5076537;28;19924;-73
2022/09/13 01:30:07;;;;;;;;;;;11.70;99.90;;;;;;5080284;28;19929;-72
2022/09/13 01:32:40;;;;;;;;;;;11.70;99.90;;;;;;5067637;28;20612;-73
2022/09/13 01:35:21;;;;;;;;;;;11.70;99.90;;;;;;5069258;28;19928;-72
2022/09/13 01:37:53;;;;;;;;;;;11.70;99.90;;;;;;5080419;28;20789;-72
2022/09/13 01:40:38;;;;;;;;;;;11.70;99.90;;;;;;5067168;28;19974;-71
2022/09/13 01:43:22;;;;;;;;;;;11.70;99.90;;;;;;5070557;28;20618;-73
2022/09/13 01:46:10;;;;;;;;;;;11.70;99.90;;;;;;5077923;28;19933;-73
2022/09/13 01:48:57;;;;;;;;;;;11.70;99.90;;;;;;5043838;28;19960;-72
2022/09/13 01:51:41;;;;;;;;;;;11.60;99.90;;;;;;5074864;28;20391;-73
2022/09/13 01:54:16;;;;;;;;;;;11.60;99.90;;;;;;5073749;28;19928;-72
2022/09/13 01:56:45;;;;;;;;;;;11.60;99.90;;;;;;5063091;28;20772;-73
2022/09/13 01:59:24;;;;;;;;;;;11.60;99.90;;;;;;5062483;28;20559;-73
2022/09/13 02:02:01;;;;;;;;;;;11.60;99.90;;;;;;5075552;28;19928;-72
2022/09/13 02:04:31;;;;;;;;;;;11.60;99.90;;;;;;5066336;28;19973;-72
2022/09/13 02:07:15;;;;;;;;;;;11.60;99.90;;;;;;5065455;28;19925;-73
2022/09/13 02:09:49;;;;;;;;;;;11.60;99.90;;;;;;5077814;28;19928;-73
2022/09/13 02:12:23;;;;;;;;;;;11.60;99.90;;;;;;5064292;28;19928;-72
2022/09/13 02:15:14;;;;;;;;;;;11.50;99.90;;;;;;5076780;28;19951;-72
2022/09/13 02:17:49;;;;;;;;;;;11.50;99.90;;;;;;5059160;28;19969;-72
2022/09/13 02:20:27;;;;;;;;;;;11.50;99.90;;;;;;5079241;28;19928;-71
2022/09/13 02:23:01;;;;;;;;;;;11.50;99.90;;;;;;5065269;28;19936;-73
2022/09/13 02:25:34;;;;;;;;;;;11.50;99.90;;;;;;5082563;28;20054;-73
2022/09/13 02:28:06;;;;;;;;;;;11.50;99.90;;;;;;5080398;28;19972;-72
2022/09/13 02:30:40;;;;;;;;;;;11.50;99.90;;;;;;5041790;28;19925;-73
2022/09/13 02:33:14;;;;;;;;;;;11.50;99.90;;;;;;5048022;28;19931;-71
2022/09/13 02:35:51;;;;;;;;;;;11.40;99.90;;;;;;5081862;28;20650;-72
2022/09/13 02:38:29;;;;;;;;;;;11.40;99.90;;;;;;5062291;28;19931;-72
2022/09/13 02:41:08;;;;;;;;;;;11.40;99.90;;;;;;5071199;28;20394;-72
2022/09/13 02:43:43;;;;;;;;;;;11.40;99.90;;;;;;5079958;28;19928;-71
2022/09/13 02:46:20;;;;;;;;;;;11.40;99.90;;;;;;5071831;28;19924;-72
2022/09/13 02:48:55;;;;;;;;;;;11.30;99.90;;;;;;5062430;28;19978;-73
2022/09/13 02:51:47;;;;;;;;;;;11.30;99.90;;;;;;5062652;28;19929;-73
2022/09/13 02:54:18;;;;;;;;;;;11.30;99.90;;;;;;5053212;28;19986;-72
2022/09/13 02:56:53;;;;;;;;;;;11.30;99.90;;;;;;5064337;28;19970;-72
2022/09/13 02:59:25;;;;;;;;;;;11.30;99.90;;;;;;5064196;28;19924;-71
2022/09/13 03:01:53;;;;;;;;;;;11.30;99.90;;;;;;5064032;28;19974;-72
2022/09/13 03:04:20;;;;;;;;;;;11.30;99.90;;;;;;5068250;28;19934;-72
2022/09/13 03:06:52;;;;;;;;;;;11.30;99.90;;;;;;5076608;28;19982;-73
2022/09/13 03:09:24;;;;;;;;;;;11.20;99.90;;;;;;5063527;28;19936;-71
2022/09/13 03:11:53;;;;;;;;;;;11.20;99.90;;;;;;5074838;28;19986;-73
2022/09/13 03:14:31;;;;;;;;;;;11.20;99.90;;;;;;5076725;28;19987;-72
2022/09/13 03:17:14;;;;;;;;;;;11.20;99.90;;;;;;5066032;28;19925;-73
2022/09/13 03:19:59;;;;;;;;;;;11.20;99.90;;;;;;5077781;28;19936;-73
2022/09/13 03:22:49;;;;;;;;;;;11.20;99.90;;;;;;5062418;28;20401;-72
2022/09/13 03:25:34;;;;;;;;;;;11.10;99.90;;;;;;5059069;28;19928;-73
2022/09/13 03:28:24;;;;;;;;;;;11.10;99.90;;;;;;5065458;28;19951;-73
2022/09/13 03:31:02;;;;;;;;;;;11.10;99.90;;;;;;5076580;28;19976;-72
2022/09/13 03:33:37;;;;;;;;;;;11.10;99.90;;;;;;5066497;28;19931;-72
2022/09/13 03:36:20;;;;;;;;;;;11.10;99.90;;;;;;5066799;28;19925;-73
2022/09/13 03:39:00;;;;;;;;;;;11.10;99.90;;;;;;5081356;28;19928;-73
2022/09/13 03:41:35;;;;;;;;;;;11.10;99.90;;;;;;5066753;28;19928;-73
2022/09/13 03:44:10;;;;;;;;;;;11.10;99.90;;;;;;5072655;28;19928;-72
2022/09/13 03:46:41;;;;;;;;;;;11.10;99.90;;;;;;5043805;28;20312;-72
2022/09/13 03:49:14;;;;;;;;;;;11.10;99.90;;;;;;5075949;28;20444;-72
2022/09/13 03:51:46;;;;;;;;;;;11.10;99.90;;;;;;5059526;28;19932;-70
2022/09/13 03:54:20;;;;;;;;;;;11.10;99.90;;;;;;5060820;28;20329;-72
2022/09/13 03:57:10;;;;;;;;;;;11.00;99.90;;;;;;5049319;28;19939;-73
2022/09/13 03:59:38;;;;;;;;;;;11.00;99.90;;;;;;5059055;28;19932;-73
2022/09/13 04:02:10;;;;;;;;;;;11.00;99.90;;;;;;5069257;28;20013;-73
2022/09/13 04:04:43;;;;;;;;;;;11.00;99.90;;;;;;5057008;28;19939;-73
2022/09/13 04:07:18;;;;;;;;;;;11.00;99.90;;;;;;5056535;28;19928;-76
2022/09/13 04:09:45;;;;;;;;;;;11.00;99.90;;;;;;5059988;28;19924;-72
2022/09/13 04:12:13;;;;;;;;;;;11.00;99.90;;;;;;5083796;28;19985;-73
2022/09/13 04:14:40;;;;;;;;;;;11.00;99.90;;;;;;5077733;28;19924;-73
2022/09/13 04:17:06;;;;;;;;;;;11.00;99.90;;;;;;5062742;28;19928;-72
2022/09/13 04:19:38;;;;;;;;;;;10.90;99.90;;;;;;5069597;28;19924;-73
2022/09/13 04:22:10;;;;;;;;;;;10.90;99.90;;;;;;5055813;28;19955;-73
2022/09/13 04:24:42;;;;;;;;;;;10.90;99.90;;;;;;5037889;28;19929;-73
2022/09/13 04:27:09;;;;;;;;;;;10.90;99.90;;;;;;5054404;28;19924;-72
2022/09/13 04:29:40;;;;;;;;;;;10.90;99.90;;;;;;5067767;28;20060;-73
2022/09/13 04:32:08;;;;;;;;;;;10.90;99.90;;;;;;5073193;28;20544;-73
2022/09/13 04:34:40;;;;;;;;;;;11.00;99.90;;;;;;5073439;28;19924;-76
2022/09/13 04:37:12;;;;;;;;;;;11.00;99.90;;;;;;5051179;28;19979;-73
2022/09/13 04:39:43;;;;;;;;;;;11.00;99.90;;;;;;5067626;28;20279;-73
2022/09/13 04:42:15;;;;;;;;;;;10.90;99.90;;;;;;5072502;28;19928;-73
2022/09/13 04:44:42;;;;;;;;;;;10.90;99.90;;;;;;5073902;28;19978;-73
2022/09/13 04:47:09;;;;;;;;;;;10.90;99.90;;;;;;5077205;28;20370;-73
2022/09/13 04:49:41;;;;;;;;;;;10.80;99.90;;;;;;5054134;28;20468;-72
2022/09/13 04:52:12;;;;;;;;;;;10.80;99.90;;;;;;5061296;28;19974;-73
2022/09/13 04:54:44;;;;;;;;;;;10.80;99.90;;;;;;5074297;28;19974;-73
2022/09/13 04:57:16;;;;;;;;;;;10.80;99.90;;;;;;5069976;28;19986;-73
2022/09/13 04:59:47;;;;;;;;;;;10.70;99.90;;;;;;5069125;28;19981;-71
2022/09/13 05:02:19;;;;;;;;;;;10.70;99.90;;;;;;5058536;28;19928;-73
2022/09/13 05:04:51;;;;;;;;;;;10.70;99.90;;;;;;5053007;28;19982;-73
2022/09/13 05:07:17;;;;;;;;;;;10.80;99.90;;;;;;5051202;28;19924;-73
2022/09/13 05:09:49;;;;;;;;;;;10.70;99.90;;;;;;5083123;28;19967;-72
2022/09/13 05:12:20;;;;;;;;;;;10.80;99.90;;;;;;5070677;28;20341;-73
2022/09/13 05:14:52;;;;;;;;;;;10.80;99.90;;;;;;5069814;28;19928;-73
2022/09/13 05:17:23;;;;;;;;;;;10.80;99.90;;;;;;5060203;28;19931;-73
2022/09/13 05:19:55;;;;;;;;;;;10.80;99.90;;;;;;5064685;28;19924;-73
2022/09/13 05:22:26;;;;;;;;;;;10.80;99.90;;;;;;5082792;28;19994;-73
2022/09/13 05:24:58;;;;;;;;;;;10.80;99.90;;;;;;5055093;28;19944;-73
2022/09/13 05:27:30;;;;;;;;;;;10.90;99.90;;;;;;5073343;28;19924;-72
2022/09/13 05:30:02;;;;;;;;;;;10.90;99.90;;;;;;5071627;28;20466;-72
2022/09/13 05:32:34;;;;;;;;;;;10.90;99.90;;;;;;5064048;28;19987;-71
2022/09/13 05:35:06;;;;;;;;;;;10.90;99.90;;;;;;5076330;28;19928;-71
2022/09/13 05:37:37;;;;;;;;;;;10.90;99.90;;;;;;5075489;28;20434;-73
2022/09/13 05:40:09;;;;;;;;;;;10.90;99.90;;;;;;5074027;28;19978;-73
2022/09/13 05:42:40;;;;;;;;;;;10.90;99.90;;;;;;5065701;28;19998;-73
2022/09/13 05:45:12;;;;;;;;;;;10.90;99.90;;;;;;5069607;28;19925;-72
2022/09/13 05:47:39;;;;;;;;;;;10.90;99.90;;;;;;5076233;28;19933;-73
2022/09/13 05:50:10;;;;;;;;;;;10.90;99.90;;;;;;5075839;28;19928;-71
2022/09/13 05:52:42;;;;;;;;;;;11.00;99.90;;;;;;5075813;28;19935;-72
2022/09/13 05:55:08;;;;;;;;;;;11.00;99.90;;;;;;5082255;28;20040;-72
2022/09/13 05:57:40;;;;;;;;;;;11.20;99.90;;;;;;5073153;28;19951;-72
2022/09/13 06:00:12;;;;;;;;;;;11.30;99.90;;;;;;5068121;28;19947;-72
2022/09/13 06:02:43;;;;;;;;;;;11.30;99.90;;;;;;5072851;28;19928;-73
2022/09/13 06:05:15;;;;;;;;;;;11.30;99.90;;;;;;5086752;28;19928;-72
2022/09/13 06:07:42;;;;;;;;;;;11.40;99.90;;;;;;5080656;28;19924;-73
2022/09/13 06:10:13;;;;;;;;;;;11.40;99.90;;;;;;5085910;28;20139;-72
2022/09/13 06:12:46;;;;;;;;;;;11.40;99.90;;;;;;5075595;28;19955;-72
2022/09/13 06:15:17;;;;;;;;;;;11.50;99.90;;;;;;5072734;28;20452;-72
2022/09/13 06:17:49;;;;;;;;;;;11.50;99.90;;;;;;5076311;28;19932;-72
2022/09/13 06:20:20;;;;;;;;;;;11.50;99.90;;;;;;5075455;28;20568;-74
2022/09/13 06:22:52;;;;;;;;;;;11.60;99.90;;;;;;5073591;28;19986;-71
2022/09/13 06:25:23;;;;;;;;;;;11.60;99.90;;;;;;5061106;28;19950;-71
2022/09/13 06:27:55;;;;;;;;;;;11.70;99.90;;;;;;5080502;28;19924;-74
2022/09/13 06:30:22;;;;;;;;;;;11.80;99.90;;;;;;5074397;28;19987;-75
2022/09/13 06:32:49;;;;;;;;;;;11.80;99.90;;;;;;5052031;28;19931;-71
2022/09/13 06:35:20;;;;;;;;;;;11.90;99.90;;;;;;5080535;28;19970;-71
2022/09/13 06:37:56;;;;;;;;;;;12.00;99.90;;;;;;5076384;28;19924;-73
2022/09/13 06:40:28;;;;;;;;;;;12.00;99.90;;;;;;5077439;28;19940;-71
2022/09/13 06:42:59;;;;;;;;;;;12.10;99.90;;;;;;5066308;28;19931;-71
2022/09/13 06:45:31;;;;;;;;;;;12.20;99.90;;;;;;5075580;28;19924;-71
2022/09/13 06:48:02;;;;;;;;;;;12.30;99.90;;;;;;5064766;28;19928;-73
2022/09/13 06:50:34;;;;;;;;;;;12.50;99.90;;;;;;5068555;28;19924;-71
2022/09/13 06:53:06;;;;;;;;;;;12.60;99.90;;;;;;5075717;28;20439;-71
2022/09/13 06:55:37;;;;;;;;;;;12.70;99.90;;;;;;5058920;28;19931;-72
2022/09/13 06:58:09;;;;;;;;;;;12.80;99.90;;;;;;5062183;28;20334;-72
2022/09/13 07:00:40;;;;;;;;;;;12.80;99.90;;;;;;5063595;28;19991;-72
2022/09/13 07:03:12;;;;;;;;;;;12.90;99.90;;;;;;5064600;28;19952;-73
2022/09/13 07:05:43;;;;;;;;;;;13.00;99.90;;;;;;5071654;28;20453;-73
2022/09/13 07:08:15;;;;;;;;;;;13.00;99.90;;;;;;5051299;28;19983;-72
2022/09/13 07:10:46;;;;;;;;;;;13.00;99.90;;;;;;5061385;28;19978;-72
2022/09/13 07:13:19;;;;;;;;;;;13.00;99.90;;;;;;5068051;28;19924;-72
2022/09/13 07:15:51;;;;;;;;;;;13.10;99.90;;;;;;5073711;28;19928;-72
2022/09/13 07:18:22;;;;;;;;;;;13.20;99.90;;;;;;5076198;28;19935;-73
2022/09/13 07:20:59;;;;;;;;;;;13.20;99.90;;;;;;5068546;28;19928;-72
2022/09/13 07:23:31;;;;;;;;;;;13.30;99.90;;;;;;5070609;28;19932;-72
2022/09/13 07:26:03;;;;;;;;;;;13.40;99.90;;;;;;5077380;28;20374;-72
2022/09/13 07:28:36;;;;;;;;;;;13.40;99.90;;;;;;5063128;28;19924;-72
2022/09/13 07:31:07;;;;;;;;;;;13.50;99.90;;;;;;5056207;28;19932;-73
2022/09/13 07:33:40;;;;;;;;;;;13.60;99.90;;;;;;5061823;28;19924;-72
2022/09/13 07:36:12;;;;;;;;;;;13.70;99.90;;;;;;5081992;28;20394;-72
2022/09/13 07:38:44;;;;;;;;;;;13.80;99.90;;;;;;5063525;28;19924;-72
2022/09/13 07:41:17;;;;;;;;;;;13.90;99.90;;;;;;5083343;28;19935;-72
2022/09/13 07:43:48;;;;;;;;;;;14.00;99.90;;;;;;5082423;28;19931;-72
2022/09/13 07:46:21;;;;;;;;;;;14.10;99.90;;;;;;5081251;28;19936;-72
2022/09/13 07:48:54;;;;;;;;;;;14.30;99.90;;;;;;5050511;28;19925;-73
2022/09/13 07:51:21;;;;;;;;;;;14.40;99.90;;;;;;5080149;28;20005;-72
2022/09/13 07:53:55;;;;;;;;;;;14.50;99.90;;;;;;5063344;28;20326;-72
2022/09/13 07:56:23;;;;;;;;;;;14.70;99.90;;;;;;5075892;28;19932;-72
2022/09/13 07:58:55;;;;;;;;;;;14.90;99.90;;;;;;5077501;28;19928;-72
2022/09/13 08:01:33;;;;;;;;;;;15.00;99.90;;;;;;5070344;28;19986;-72
2022/09/13 08:04:09;;;;;;;;;;;15.10;99.90;;;;;;5070562;28;19970;-72
2022/09/13 08:06:42;;;;;;;;;;;15.30;99.90;;;;;;5078491;28;19991;-72
2022/09/13 08:09:14;;;;;;;;;;;15.40;99.90;;;;;;5063561;28;19960;-72
2022/09/13 08:11:48;;;;;;;;;;;15.50;99.90;;;;;;5045804;28;19932;-72
2022/09/13 08:14:20;;;;;;;;;;;15.70;99.90;;;;;;5077038;28;19978;-73
2022/09/13 08:16:55;;;;;;;;;;;15.90;99.90;;;;;;5080988;28;19936;-72
2022/09/13 08:19:27;;;;;;;;;;;16.10;99.90;;;;;;5079942;28;20344;-73
2022/09/13 08:21:59;;;;;;;;;;;16.40;99.90;;;;;;5088200;28;19924;-72
2022/09/13 08:24:31;;;;;;;;;;;16.60;99.90;;;;;;5072664;28;19924;-72
2022/09/13 08:27:03;;;;;;;;;;;16.80;99.90;;;;;;5079505;28;20445;-72
2022/09/13 08:29:34;;;;;;;;;;;16.90;99.90;;;;;;5057060;28;19973;-71
2022/09/13 08:32:06;;;;;;;;;;;17.00;99.90;;;;;;5057947;28;19924;-72
2022/09/13 08:34:37;;;;;;;;;;;17.10;99.90;;;;;;5078959;28;20476;-72
2022/09/13 08:37:10;;;;;;;;;;;17.30;99.90;;;;;;5068268;28;19924;-73
2022/09/13 08:39:37;;;;;;;;;;;17.40;99.90;;;;;;5078421;28;19928;-72
2022/09/13 08:42:21;;;;;;;;;;;17.40;99.90;;;;;;5072852;28;19932;-72
2022/09/13 08:44:54;;;;;;;;;;;17.40;99.90;;;;;;5065015;28;19928;-72
2022/09/13 08:47:47;;;;;;;;;;;17.40;99.90;;;;;;5067955;28;19978;-72
2022/09/13 08:50:19;;;;;;;;;;;17.50;99.90;;;;;;5057514;28;19981;-72
2022/09/13 08:52:51;;;;;;;;;;;17.60;99.90;;;;;;5076784;28;19997;-73
2022/09/13 08:55:36;;;;;;;;;;;17.80;99.90;;;;;;5081705;28;19928;-73
2022/09/13 08:58:26;;;;;;;;;;;17.90;99.90;;;;;;5060895;28;20284;-73
2022/09/13 09:01:13;;;;;;;;;;;18.00;99.90;;;;;;5069192;28;19932;-72
2022/09/13 09:03:48;;;;;;;;;;;18.10;99.90;;;;;;5062959;28;19977;-72
2022/09/13 09:06:21;;;;;;;;;;;18.20;99.90;;;;;;5071531;28;20093;-73
2022/09/13 09:08:53;;;;;;;;;;;18.40;99.90;;;;;;5083885;28;20469;-73
2022/09/13 09:11:33;;;;;;;;;;;18.60;99.90;;;;;;5075670;28;19940;-73
2022/09/13 09:14:11;;;;;;;;;;;18.80;99.90;;;;;;5048799;28;19929;-72
2022/09/13 09:16:40;;;;;;;;;;;18.90;99.90;;;;;;5063501;28;20386;-72
2022/09/13 09:19:15;;;;;;;;;;;19.10;99.90;;;;;;5077140;28;20290;-72
2022/09/13 09:21:48;;;;;;;;;;;19.30;99.90;;;;;;5041633;28;19924;-72
2022/09/13 09:24:22;;;;;;;;;;;19.40;99.90;;;;;;5061160;28;20345;-72
2022/09/13 09:26:56;;;;;;;;;;;19.60;99.90;;;;;;5075771;28;20548;-72
2022/09/13 09:29:31;;;;;;;;;;;19.90;99.90;;;;;;5078640;28;19978;-73
2022/09/13 09:32:13;;;;;;;;;;;20.10;99.90;;;;;;5076656;28;19978;-73
2022/09/13 09:34:49;;;;;;;;;;;20.30;99.90;;;;;;5059501;28;19924;-72
2022/09/13 09:37:23;;;;;;;;;;;20.40;99.90;;;;;;5068269;28;19924;-72
2022/09/13 09:40:05;;;;;;;;;;;20.50;99.90;;;;;;5073361;28;20333;-72
2022/09/13 09:42:41;;;;;;;;;;;20.50;99.90;;;;;;5084726;28;19977;-72
2022/09/13 09:45:20;;;;;;;;;;;20.60;99.90;;;;;;5062297;28;20369;-72
2022/09/13 09:47:54;;;;;;;;;;;20.60;99.90;;;;;;5070009;28;20345;-72
2022/09/13 09:50:31;;;;;;;;;;;20.70;99.90;;;;;;5066916;28;19951;-73
2022/09/13 09:53:07;;;;;;;;;;;20.80;99.90;;;;;;5076410;28;20495;-72
2022/09/13 09:55:45;;;;;;;;;;;20.90;99.90;;;;;;5087432;28;19924;-73
2022/09/13 09:58:15;;;;;;;;;;;21.10;99.90;;;;;;5071191;28;20387;-72
2022/09/13 10:00:51;;;;;;;;;;;21.30;99.90;;;;;;5040790;28;19931;-71
2022/09/13 10:03:25;;;;;;;;;;;21.40;99.90;;;;;;5059407;28;20009;-72
2022/09/13 10:06:18;;;;;;;;;;;21.60;99.90;;;;;;5072324;28;19973;-72
2022/09/13 10:08:55;;;;;;;;;;;21.70;99.90;;;;;;5075561;28;19925;-72
2022/09/13 10:11:26;;;;;;;;;;;21.80;99.90;;;;;;5054293;28;19925;-73
2022/09/13 10:13:59;;;;;;;;;;;21.80;99.90;;;;;;5062236;28;19974;-72
2022/09/13 10:16:30;;;;;;;;;;;21.90;99.90;;;;;;5073446;28;19932;-72
2022/09/13 10:19:22;;;;;;;;;;;22.00;99.90;;;;;;5076194;28;19929;-72
2022/09/13 10:22:01;;;;;;;;;;;22.10;99.90;;;;;;5080208;28;20314;-72
2022/09/13 10:24:33;;;;;;;;;;;22.30;99.90;;;;;;5060293;28;19989;-73
2022/09/13 10:27:18;;;;;;;;;;;22.50;99.90;;;;;;5085621;28;19928;-72
2022/09/13 10:29:54;;;;;;;;;;;22.60;99.90;;;;;;5071143;28;19924;-72
2022/09/13 10:32:26;;;;;;;;;;;22.60;99.90;;;;;;5075069;28;19929;-73
2022/09/13 10:35:05;;;;;;;;;;;22.60;99.90;;;;;;5070503;28;19928;-73
2022/09/13 10:37:41;;;;;;;;;;;22.70;99.90;;;;;;5074889;28;19924;-72
2022/09/13 10:40:27;;;;;;;;;;;22.70;99.90;;;;;;5073176;28;19929;-73
2022/09/13 10:43:02;;;;;;;;;;;22.80;99.90;;;;;;5059503;28;19925;-73
2022/09/13 10:45:33;;;;;;;;;;;22.90;99.90;;;;;;5066318;28;19925;-73
2022/09/13 10:48:15;;;;;;;;;;;23.00;99.90;;;;;;5061892;28;19928;-73
2022/09/13 10:51:04;;;;;;;;;;;23.20;99.90;;;;;;5059205;28;19924;-73
2022/09/13 10:53:37;;;;;;;;;;;23.30;99.90;;;;;;5073630;28;19924;-72
2022/09/13 10:56:24;;;;;;;;;;;23.30;99.90;;;;;;5064968;28;19932;-72
2022/09/13 10:59:10;;;;;;;;;;;23.40;99.90;;;;;;5071159;28;19924;-73
2022/09/13 11:01:40;;;;;;;;;;;23.50;99.90;;;;;;5066180;28;19924;-72
2022/09/13 11:04:27;;;;;;;;;;;23.60;99.90;;;;;;5073428;28;19928;-73
2022/09/13 11:07:25;;;;;;;;;;;23.70;99.90;;;;;;5062128;28;20700;-72
2022/09/13 11:09:56;;;;;;;;;;;23.70;99.90;;;;;;5061095;28;20638;-72
2022/09/13 11:12:36;;;;;;;;;;;23.60;99.90;;;;;;5072104;28;20272;-72
2022/09/13 11:15:26;;;;;;;;;;;23.60;99.90;;;;;;5066125;28;19982;-71
2022/09/13 11:18:01;;;;;;;;;;;23.70;99.90;;;;;;5063992;28;19932;-71
2022/09/13 11:20:44;;;;;;;;;;;23.70;99.90;;;;;;5066005;28;20647;-73
2022/09/13 11:23:21;;;;;;;;;;;23.70;99.90;;;;;;5081843;28;20049;-72
2022/09/13 11:25:53;;;;;;;;;;;23.70;99.90;;;;;;5052643;28;19925;-74
2022/09/13 11:28:34;;;;;;;;;;;23.80;99.90;;;;;;5062419;28;20507;-72
2022/09/13 11:31:18;;;;;;;;;;;23.80;99.90;;;;;;5057999;28;19928;-73
2022/09/13 11:33:50;;;;;;;;;;;23.90;99.90;;;;;;5063787;28;19990;-74
2022/09/13 11:36:22;;;;;;;;;;;23.90;99.90;;;;;;5063248;28;19925;-72
2022/09/13 11:38:57;;;;;;;;;;;24.00;99.90;;;;;;5033698;28;19932;-73
2022/09/13 11:41:28;;;;;;;;;;;24.10;99.90;;;;;;5067037;28;19932;-73
2022/09/13 11:44:00;;;;;;;;;;;24.20;99.90;;;;;;5075315;28;19932;-73
2022/09/13 11:46:50;;;;;;;;;;;24.40;99.90;;;;;;5076078;28;19924;-72
2022/09/13 11:49:40;;;;;;;;;;;24.60;99.90;;;;;;5074704;28;19987;-72
2022/09/13 11:52:27;;;;;;;;;;;24.70;99.90;;;;;;5075519;28;19928;-72
2022/09/13 11:55:05;;;;;;;;;;;24.80;99.90;;;;;;5073944;28;20395;-72
2022/09/13 11:57:39;;;;;;;;;;;24.80;99.90;;;;;;5059571;28;19928;-72
2022/09/13 12:00:18;;;;;;;;;;;24.90;99.90;;;;;;5059400;28;20256;-73
2022/09/13 12:02:50;;;;;;;;;;;24.80;99.90;;;;;;5061522;28;20322;-73
2022/09/13 12:05:23;;;;;;;;;;;24.90;99.90;;;;;;5080309;28;20422;-74
2022/09/13 12:08:04;;;;;;;;;;;25.00;99.90;;;;;;5070441;28;19924;-72
2022/09/13 12:10:56;;;;;;;;;;;24.90;99.90;;;;;;5078682;28;19970;-73
2022/09/13 12:13:42;;;;;;;;;;;25.00;99.90;;;;;;5075272;28;20360;-72
2022/09/13 12:16:19;;;;;;;;;;;25.00;99.90;;;;;;5075600;28;19928;-72
2022/09/13 12:18:53;;;;;;;;;;;25.00;99.90;;;;;;5067068;28;19928;-73
2022/09/13 12:21:27;;;;;;;;;;;25.10;99.90;;;;;;5074158;28;19924;-72
2022/09/13 12:23:59;;;;;;;;;;;25.10;99.90;;;;;;5083226;28;19928;-72
2022/09/13 12:26:36;;;;;;;;;;;25.00;99.90;;;;;;5080430;28;19935;-72
2022/09/13 12:29:20;;;;;;;;;;;25.10;99.90;;;;;;5072893;28;19924;-72
2022/09/13 12:31:54;;;;;;;;;;;25.20;99.90;;;;;;5079164;28;20287;-75
2022/09/13 12:34:31;;;;;;;;;;;25.20;99.90;;;;;;5070062;28;19951;-74
2022/09/13 12:37:02;;;;;;;;;;;25.30;99.90;;;;;;5064625;28;19947;-73
2022/09/13 12:39:32;;;;;;;;;;;25.40;99.90;;;;;;5083639;28;19929;-74
2022/09/13 12:42:10;;;;;;;;;;;25.50;99.90;;;;;;5070236;28;19924;-73
2022/09/13 12:44:50;;;;;;;;;;;25.50;99.90;;;;;;5072274;28;19931;-72
2022/09/13 12:47:27;;;;;;;;;;;25.60;99.90;;;;;;5065064;28;19924;-72
2022/09/13 12:49:59;;;;;;;;;;;25.60;99.90;;;;;;5064844;28;19932;-72
2022/09/13 12:52:36;;;;;;;;;;;25.60;99.90;;;;;;5068809;28;20402;-73
2022/09/13 12:55:25;;;;;;;;;;;25.60;99.90;;;;;;5060646;28;19932;-72
2022/09/13 12:58:10;;;;;;;;;;;25.50;99.90;;;;;;5055557;28;20383;-72
2022/09/13 13:00:41;;;;;;;;;;;25.60;99.90;;;;;;5061072;28;19924;-73
2022/09/13 13:03:15;;;;;;;;;;;25.70;99.90;;;;;;5055249;28;20437;-72
2022/09/13 13:05:49;;;;;;;;;;;25.70;99.90;;;;;;5062982;28;19931;-73
2022/09/13 13:08:20;;;;;;;;;;;25.80;99.90;;;;;;5082139;28;19932;-72
2022/09/13 13:11:06;;;;;;;;;;;25.90;99.90;;;;;;5070210;28;19973;-73
2022/09/13 13:13:51;;;;;;;;;;;25.90;99.90;;;;;;5069682;28;19924;-73
2022/09/13 13:16:21;;;;;;;;;;;26.00;99.90;;;;;;5075255;28;19966;-73
2022/09/13 13:18:50;;;;;;;;;;;26.10;99.90;;;;;;5067737;28;20415;-73
2022/09/13 13:21:26;;;;;;;;;;;26.20;99.90;;;;;;5062711;28;19929;-72
2022/09/13 13:24:16;;;;;;;;;;;26.20;99.90;;;;;;5086584;28;20398;-72
2022/09/13 13:26:55;;;;;;;;;;;26.30;99.90;;;;;;5080600;28;19932;-72
2022/09/13 13:29:25;;;;;;;;;;;26.30;99.90;;;;;;5075698;28;20383;-73
2022/09/13 13:31:56;;;;;;;;;;;26.30;99.90;;;;;;5078135;28;19928;-72
2022/09/13 13:34:28;;;;;;;;;;;26.30;99.90;;;;;;5057843;28;19994;-72
2022/09/13 13:37:01;;;;;;;;;;;26.50;99.90;;;;;;5088074;28;19965;-73
2022/09/13 13:39:33;;;;;;;;;;;26.50;99.90;;;;;;5069032;28;19924;-72
2022/09/13 13:42:24;;;;;;;;;;;26.60;99.90;;;;;;5054353;28;19994;-73
2022/09/13 13:44:58;;;;;;;;;;;26.60;99.90;;;;;;5082778;28;20457;-72
2022/09/13 13:47:30;;;;;;;;;;;26.40;99.90;;;;;;5076727;28;19951;-73
2022/09/13 13:50:16;;;;;;;;;;;26.30;99.90;;;;;;5081205;28;19950;-72
2022/09/13 13:52:48;;;;;;;;;;;26.30;99.90;;;;;;5059336;28;19931;-72
2022/09/13 13:55:24;;;;;;;;;;;26.10;99.90;;;;;;5073277;28;19924;-72
2022/09/13 13:58:00;;;;;;;;;;;26.00;99.90;;;;;;5068452;28;20456;-73
2022/09/13 14:00:33;;;;;;;;;;;26.00;99.90;;;;;;5063920;28;19928;-73
2022/09/13 14:03:10;;;;;;;;;;;25.90;99.90;;;;;;5068347;28;19928;-73
2022/09/13 14:05:47;;;;;;;;;;;25.90;99.90;;;;;;5080531;28;20450;-73
2022/09/13 14:08:28;;;;;;;;;;;25.90;99.90;;;;;;5068969;28;19928;-72
2022/09/13 14:11:03;;;;;;;;;;;25.90;99.90;;;;;;5053895;28;19924;-74
2022/09/13 14:13:40;;;;;;;;;;;25.90;99.90;;;;;;5060688;28;19924;-73
2022/09/13 14:16:18;;;;;;;;;;;25.90;99.90;;;;;;5065573;28;19924;-73
2022/09/13 14:18:56;;;;;;;;;;;25.80;99.90;;;;;;5084937;28;20336;-73
2022/09/13 14:21:29;;;;;;;;;;;25.70;99.90;;;;;;5061856;28;20340;-72
2022/09/13 14:24:17;;;;;;;;;;;25.60;99.90;;;;;;5065741;28;19928;-73
2022/09/13 14:26:56;;;;;;;;;;;25.50;99.90;;;;;;5053344;28;19977;-72
2022/09/13 14:29:28;;;;;;;;;;;25.50;99.90;;;;;;5069424;28;19931;-72
2022/09/13 14:32:03;;;;;;;;;;;25.50;99.90;;;;;;5063684;28;19928;-73
2022/09/13 14:34:34;;;;;;;;;;;25.50;99.90;;;;;;5072180;28;20317;-72
2022/09/13 14:37:14;;;;;;;;;;;25.50;99.90;;;;;;5073523;28;19928;-73
2022/09/13 14:40:12;;;;;;;;;;;25.50;99.90;;;;;;5070654;28;19978;-73
2022/09/13 14:42:45;;;;;;;;;;;25.60;99.90;;;;;;5045730;28;20337;-75
2022/09/13 14:45:22;;;;;;;;;;;25.60;99.90;;;;;;5074993;28;19924;-72
2022/09/13 14:47:56;;;;;;;;;;;25.50;99.90;;;;;;5074689;28;19928;-73
2022/09/13 14:50:37;;;;;;;;;;;25.50;99.90;;;;;;5059991;28;19940;-74
2022/09/13 14:53:14;;;;;;;;;;;25.40;99.90;;;;;;5079192;28;20310;-72
2022/09/13 14:55:50;;;;;;;;;;;25.40;99.90;;;;;;5072304;28;19933;-73
2022/09/13 14:58:25;;;;;;;;;;;25.20;99.90;;;;;;5062435;28;19939;-73
2022/09/13 15:00:55;;;;;;;;;;;25.20;99.90;;;;;;5076439;28;19924;-73